sensor_id;sensor_type;location;lat;lon;timestamp;P1;durP1;ratioP1;P2;durP2;ratioP2
14167;SDS011;7163;50.626;12.922;2024-01-16T00:01:41;2.70;;;2.50;;
14167;SDS011;7163;50.626;12.922;2024-01-16T00:06:44;2.00;;;1.90;;
14167;SDS011;7163;50.626;12.922;2024-01-16T00:11:44;2.00;;;1.90;;
14167;SDS011;7163;50.626;12.922;2024-01-16T00:16:45;1.60;;;1.60;;
14167;SDS011;7163;50.626;12.922;2024-01-16T00:21:46;1.80;;;1.80;;
14167;SDS011;7163;50.626;12.922;2024-01-16T00:26:47;2.20;;;2.10;;
14167;SDS011;7163;50.626;12.922;2024-01-16T00:31:50;2.00;;;1.90;;
14167;SDS011;7163;50.626;12.922;2024-01-16T00:36:56;2.23;;;2.13;;
14167;SDS011;7163;50.626;12.922;2024-01-16T00:57:29;1.70;;;1.70;;
14167;SDS011;7163;50.626;12.922;2024-01-16T01:02:29;2.75;;;2.58;;
14167;SDS011;7163;50.626;12.922;2024-01-16T01:07:31;2.00;;;1.90;;
14167;SDS011;7163;50.626;12.922;2024-01-16T01:12:32;2.43;;;2.33;;
14167;SDS011;7163;50.626;12.922;2024-01-16T01:17:34;2.33;;;2.23;;
14167;SDS011;7163;50.626;12.922;2024-01-16T01:22:35;2.00;;;1.90;;
14167;SDS011;7163;50.626;12.922;2024-01-16T01:27:35;1.90;;;1.83;;
14167;SDS011;7163;50.626;12.922;2024-01-16T01:37:46;2.40;;;2.03;;
14167;SDS011;7163;50.626;12.922;2024-01-16T01:42:46;2.43;;;2.33;;
14167;SDS011;7163;50.626;12.922;2024-01-16T01:47:53;2.10;;;2.00;;
14167;SDS011;7163;50.626;12.922;2024-01-16T01:52:53;2.30;;;2.20;;
14167;SDS011;7163;50.626;12.922;2024-01-16T01:57:56;2.10;;;2.00;;
14167;SDS011;7163;50.626;12.922;2024-01-16T02:02:58;1.60;;;1.60;;
14167;SDS011;7163;50.626;12.922;2024-01-16T02:07:58;2.13;;;2.03;;
14167;SDS011;7163;50.626;12.922;2024-01-16T02:18:08;2.40;;;2.23;;
14167;SDS011;7163;50.626;12.922;2024-01-16T02:23:08;1.80;;;1.80;;
14167;SDS011;7163;50.626;12.922;2024-01-16T02:28:10;1.60;;;1.60;;
14167;SDS011;7163;50.626;12.922;2024-01-16T02:33:10;3.53;;;2.30;;
14167;SDS011;7163;50.626;12.922;2024-01-16T02:38:11;2.00;;;1.90;;
14167;SDS011;7163;50.626;12.922;2024-01-16T02:43:11;1.97;;;1.93;;
14167;SDS011;7163;50.626;12.922;2024-01-16T02:48:11;1.80;;;1.80;;
14167;SDS011;7163;50.626;12.922;2024-01-16T02:53:12;2.13;;;2.03;;
14167;SDS011;7163;50.626;12.922;2024-01-16T02:58:12;2.30;;;2.20;;
14167;SDS011;7163;50.626;12.922;2024-01-16T03:03:12;2.13;;;2.03;;
14167;SDS011;7163;50.626;12.922;2024-01-16T03:08:13;3.20;;;3.03;;
14167;SDS011;7163;50.626;12.922;2024-01-16T04:20:27;3.10;;;2.53;;
14167;SDS011;7163;50.626;12.922;2024-01-16T04:25:30;2.47;;;2.37;;
14167;SDS011;7163;50.626;12.922;2024-01-16T04:30:34;6.30;;;3.40;;
14167;SDS011;7163;50.626;12.922;2024-01-16T05:27:50;6.77;;;3.03;;
14167;SDS011;7163;50.626;12.922;2024-01-16T05:32:51;2.73;;;2.63;;
14167;SDS011;7163;50.626;12.922;2024-01-16T05:37:52;2.27;;;2.17;;
14167;SDS011;7163;50.626;12.922;2024-01-16T05:42:53;30.10;;;2.37;;
14167;SDS011;7163;50.626;12.922;2024-01-16T05:47:53;2.07;;;1.97;;
14167;SDS011;7163;50.626;12.922;2024-01-16T05:52:53;2.70;;;2.47;;
14167;SDS011;7163;50.626;12.922;2024-01-16T05:57:54;1.97;;;1.90;;
14167;SDS011;7163;50.626;12.922;2024-01-16T06:02:55;2.30;;;2.20;;
14167;SDS011;7163;50.626;12.922;2024-01-16T06:07:56;2.77;;;2.57;;
14167;SDS011;7163;50.626;12.922;2024-01-16T06:12:56;2.43;;;2.33;;
14167;SDS011;7163;50.626;12.922;2024-01-16T06:17:57;1.80;;;1.80;;
14167;SDS011;7163;50.626;12.922;2024-01-16T06:22:57;2.53;;;2.33;;
14167;SDS011;7163;50.626;12.922;2024-01-16T06:27:58;2.50;;;2.30;;
14167;SDS011;7163;50.626;12.922;2024-01-16T06:32:59;2.43;;;2.33;;
14167;SDS011;7163;50.626;12.922;2024-01-16T06:37:59;2.10;;;2.00;;
14167;SDS011;7163;50.626;12.922;2024-01-16T06:43:09;3.07;;;2.77;;
14167;SDS011;7163;50.626;12.922;2024-01-16T06:48:16;12.70;;;4.77;;
14167;SDS011;7163;50.626;12.922;2024-01-16T06:53:17;2.33;;;2.23;;
14167;SDS011;7163;50.626;12.922;2024-01-16T06:58:18;2.83;;;2.72;;
14167;SDS011;7163;50.626;12.922;2024-01-16T07:03:18;2.47;;;2.37;;
14167;SDS011;7163;50.626;12.922;2024-01-16T07:08:22;2.93;;;2.67;;
14167;SDS011;7163;50.626;12.922;2024-01-16T07:13:22;2.27;;;2.17;;
14167;SDS011;7163;50.626;12.922;2024-01-16T07:18:24;12.43;;;4.47;;
14167;SDS011;7163;50.626;12.922;2024-01-16T07:28:41;4.17;;;3.87;;
14167;SDS011;7163;50.626;12.922;2024-01-16T07:33:46;3.57;;;3.03;;
14167;SDS011;7163;50.626;12.922;2024-01-16T09:17:00;3.00;;;2.67;;
14167;SDS011;7163;50.626;12.922;2024-01-16T09:22:00;31.93;;;4.63;;
14167;SDS011;7163;50.626;12.922;2024-01-16T09:27:00;3.87;;;3.33;;
14167;SDS011;7163;50.626;12.922;2024-01-16T09:32:01;5.13;;;3.17;;
14167;SDS011;7163;50.626;12.922;2024-01-16T09:37:02;3.47;;;3.17;;
14167;SDS011;7163;50.626;12.922;2024-01-16T09:42:07;7.17;;;3.67;;
14167;SDS011;7163;50.626;12.922;2024-01-16T09:47:08;5.67;;;3.67;;
14167;SDS011;7163;50.626;12.922;2024-01-16T09:52:11;4.30;;;3.03;;
14167;SDS011;7163;50.626;12.922;2024-01-16T09:57:12;17.53;;;5.23;;
14167;SDS011;7163;50.626;12.922;2024-01-16T10:02:13;5.60;;;4.60;;
14167;SDS011;7163;50.626;12.922;2024-01-16T10:07:14;5.87;;;4.07;;
14167;SDS011;7163;50.626;12.922;2024-01-16T10:17:38;8.07;;;3.40;;
14167;SDS011;7163;50.626;12.922;2024-01-16T10:22:39;5.00;;;3.63;;
14167;SDS011;7163;50.626;12.922;2024-01-16T10:27:41;10.23;;;3.97;;
14167;SDS011;7163;50.626;12.922;2024-01-16T10:32:43;13.97;;;5.13;;
14167;SDS011;7163;50.626;12.922;2024-01-16T12:00:27;14.47;;;5.53;;
14167;SDS011;7163;50.626;12.922;2024-01-16T12:11:18;12.90;;;6.17;;
14167;SDS011;7163;50.626;12.922;2024-01-16T12:16:22;12.10;;;6.40;;
14167;SDS011;7163;50.626;12.922;2024-01-16T12:21:22;21.13;;;11.60;;
14167;SDS011;7163;50.626;12.922;2024-01-16T12:26:23;7.03;;;4.50;;
14167;SDS011;7163;50.626;12.922;2024-01-16T12:31:23;13.82;;;6.72;;
14167;SDS011;7163;50.626;12.922;2024-01-16T12:36:24;12.67;;;5.13;;
14167;SDS011;7163;50.626;12.922;2024-01-16T12:41:26;15.87;;;7.13;;
14167;SDS011;7163;50.626;12.922;2024-01-16T12:46:28;19.37;;;8.67;;
14167;SDS011;7163;50.626;12.922;2024-01-16T12:51:28;10.53;;;6.23;;
14167;SDS011;7163;50.626;12.922;2024-01-16T12:56:28;14.73;;;6.03;;
14167;SDS011;7163;50.626;12.922;2024-01-16T13:01:29;10.73;;;6.03;;
14167;SDS011;7163;50.626;12.922;2024-01-16T13:06:31;12.03;;;6.90;;
14167;SDS011;7163;50.626;12.922;2024-01-16T13:11:31;14.37;;;5.60;;
14167;SDS011;7163;50.626;12.922;2024-01-16T13:16:32;9.85;;;5.63;;
14167;SDS011;7163;50.626;12.922;2024-01-16T13:21:32;11.15;;;5.82;;
14167;SDS011;7163;50.626;12.922;2024-01-16T13:26:32;10.20;;;5.50;;
14167;SDS011;7163;50.626;12.922;2024-01-16T13:31:32;10.70;;;5.87;;
14167;SDS011;7163;50.626;12.922;2024-01-16T13:36:33;11.23;;;5.47;;
14167;SDS011;7163;50.626;12.922;2024-01-16T13:41:33;10.63;;;5.30;;
14167;SDS011;7163;50.626;12.922;2024-01-16T13:46:33;9.03;;;4.67;;
14167;SDS011;7163;50.626;12.922;2024-01-16T13:51:34;13.00;;;5.50;;
14167;SDS011;7163;50.626;12.922;2024-01-16T13:56:34;13.37;;;6.20;;
14167;SDS011;7163;50.626;12.922;2024-01-16T14:01:35;12.80;;;6.80;;
14167;SDS011;7163;50.626;12.922;2024-01-16T14:06:35;11.63;;;6.57;;
14167;SDS011;7163;50.626;12.922;2024-01-16T14:11:36;19.10;;;9.75;;
14167;SDS011;7163;50.626;12.922;2024-01-16T14:16:37;14.60;;;6.37;;
14167;SDS011;7163;50.626;12.922;2024-01-16T14:21:37;12.38;;;6.60;;
14167;SDS011;7163;50.626;12.922;2024-01-16T14:26:37;25.13;;;12.10;;
14167;SDS011;7163;50.626;12.922;2024-01-16T14:31:38;12.03;;;7.57;;
14167;SDS011;7163;50.626;12.922;2024-01-16T14:36:39;9.53;;;6.03;;
14167;SDS011;7163;50.626;12.922;2024-01-16T14:41:39;11.97;;;6.43;;
14167;SDS011;7163;50.626;12.922;2024-01-16T14:46:41;14.37;;;7.60;;
14167;SDS011;7163;50.626;12.922;2024-01-16T14:51:43;11.10;;;6.53;;
14167;SDS011;7163;50.626;12.922;2024-01-16T14:56:44;12.60;;;7.50;;
14167;SDS011;7163;50.626;12.922;2024-01-16T15:01:44;9.60;;;5.78;;
14167;SDS011;7163;50.626;12.922;2024-01-16T15:06:44;9.87;;;6.23;;
14167;SDS011;7163;50.626;12.922;2024-01-16T15:11:45;11.00;;;5.47;;
14167;SDS011;7163;50.626;12.922;2024-01-16T15:16:47;10.20;;;5.23;;
14167;SDS011;7163;50.626;12.922;2024-01-16T15:21:48;11.73;;;5.90;;
14167;SDS011;7163;50.626;12.922;2024-01-16T15:26:48;9.48;;;5.55;;
14167;SDS011;7163;50.626;12.922;2024-01-16T15:31:48;9.90;;;5.73;;
14167;SDS011;7163;50.626;12.922;2024-01-16T15:36:49;15.90;;;6.37;;
14167;SDS011;7163;50.626;12.922;2024-01-16T15:41:49;10.70;;;5.13;;
14167;SDS011;7163;50.626;12.922;2024-01-16T15:46:57;14.30;;;6.23;;
14167;SDS011;7163;50.626;12.922;2024-01-16T15:51:57;14.87;;;6.07;;
14167;SDS011;7163;50.626;12.922;2024-01-16T15:57:00;10.53;;;5.93;;
14167;SDS011;7163;50.626;12.922;2024-01-16T16:02:00;11.10;;;6.00;;
14167;SDS011;7163;50.626;12.922;2024-01-16T16:07:01;11.33;;;5.83;;
14167;SDS011;7163;50.626;12.922;2024-01-16T16:12:01;12.93;;;5.83;;
14167;SDS011;7163;50.626;12.922;2024-01-16T16:17:02;12.50;;;6.43;;
14167;SDS011;7163;50.626;12.922;2024-01-16T16:22:04;7.70;;;5.17;;
14167;SDS011;7163;50.626;12.922;2024-01-16T16:27:20;12.63;;;6.57;;
14167;SDS011;7163;50.626;12.922;2024-01-16T16:32:21;11.73;;;6.70;;
14167;SDS011;7163;50.626;12.922;2024-01-16T16:37:22;10.43;;;5.77;;
14167;SDS011;7163;50.626;12.922;2024-01-16T16:42:22;10.10;;;5.40;;
14167;SDS011;7163;50.626;12.922;2024-01-16T16:47:23;12.35;;;5.80;;
14167;SDS011;7163;50.626;12.922;2024-01-16T16:52:23;10.27;;;6.43;;
14167;SDS011;7163;50.626;12.922;2024-01-16T16:57:23;13.27;;;7.23;;
14167;SDS011;7163;50.626;12.922;2024-01-16T17:02:23;17.20;;;7.57;;
14167;SDS011;7163;50.626;12.922;2024-01-16T17:07:24;22.27;;;10.67;;
14167;SDS011;7163;50.626;12.922;2024-01-16T17:12:24;91.93;;;30.10;;
14167;SDS011;7163;50.626;12.922;2024-01-16T17:17:24;10.03;;;6.23;;
14167;SDS011;7163;50.626;12.922;2024-01-16T17:22:27;10.47;;;6.03;;
14167;SDS011;7163;50.626;12.922;2024-01-16T17:27:27;11.43;;;6.10;;
14167;SDS011;7163;50.626;12.922;2024-01-16T17:32:28;8.83;;;5.30;;
14167;SDS011;7163;50.626;12.922;2024-01-16T17:37:28;9.70;;;5.30;;
14167;SDS011;7163;50.626;12.922;2024-01-16T17:42:28;7.80;;;5.40;;
14167;SDS011;7163;50.626;12.922;2024-01-16T17:47:29;15.67;;;8.20;;
14167;SDS011;7163;50.626;12.922;2024-01-16T17:52:29;72.33;;;29.03;;
14167;SDS011;7163;50.626;12.922;2024-01-16T17:57:33;9.97;;;6.90;;
14167;SDS011;7163;50.626;12.922;2024-01-16T18:02:33;13.23;;;6.40;;
14167;SDS011;7163;50.626;12.922;2024-01-16T18:07:33;9.70;;;5.87;;
14167;SDS011;7163;50.626;12.922;2024-01-16T18:12:40;17.33;;;8.97;;
14167;SDS011;7163;50.626;12.922;2024-01-16T18:17:49;12.17;;;7.13;;
14167;SDS011;7163;50.626;12.922;2024-01-16T18:22:49;12.07;;;7.17;;
14167;SDS011;7163;50.626;12.922;2024-01-16T18:27:55;14.47;;;7.97;;
14167;SDS011;7163;50.626;12.922;2024-01-16T18:32:57;14.00;;;7.10;;
14167;SDS011;7163;50.626;12.922;2024-01-16T18:37:57;13.60;;;7.60;;
14167;SDS011;7163;50.626;12.922;2024-01-16T18:42:57;11.05;;;7.10;;
14167;SDS011;7163;50.626;12.922;2024-01-16T18:47:58;13.90;;;6.57;;
14167;SDS011;7163;50.626;12.922;2024-01-16T18:52:59;19.00;;;9.30;;
14167;SDS011;7163;50.626;12.922;2024-01-16T18:57:59;32.50;;;13.77;;
14167;SDS011;7163;50.626;12.922;2024-01-16T19:03:01;35.07;;;14.47;;
14167;SDS011;7163;50.626;12.922;2024-01-16T19:08:02;24.50;;;11.03;;
14167;SDS011;7163;50.626;12.922;2024-01-16T19:13:04;22.00;;;9.23;;
14167;SDS011;7163;50.626;12.922;2024-01-16T19:18:04;22.60;;;9.97;;
14167;SDS011;7163;50.626;12.922;2024-01-16T19:23:05;13.07;;;7.87;;
14167;SDS011;7163;50.626;12.922;2024-01-16T19:28:05;9.23;;;6.30;;
14167;SDS011;7163;50.626;12.922;2024-01-16T19:33:06;10.53;;;7.13;;
14167;SDS011;7163;50.626;12.922;2024-01-16T19:38:11;21.53;;;11.33;;
14167;SDS011;7163;50.626;12.922;2024-01-16T19:43:11;14.13;;;8.03;;
14167;SDS011;7163;50.626;12.922;2024-01-16T19:48:15;15.57;;;8.70;;
14167;SDS011;7163;50.626;12.922;2024-01-16T19:53:16;15.63;;;10.23;;
14167;SDS011;7163;50.626;12.922;2024-01-16T19:58:16;21.20;;;9.57;;
14167;SDS011;7163;50.626;12.922;2024-01-16T20:03:17;18.60;;;10.75;;
14167;SDS011;7163;50.626;12.922;2024-01-16T20:08:17;30.02;;;12.80;;
14167;SDS011;7163;50.626;12.922;2024-01-16T20:13:17;20.20;;;11.35;;
14167;SDS011;7163;50.626;12.922;2024-01-16T20:18:18;32.42;;;14.98;;
14167;SDS011;7163;50.626;12.922;2024-01-16T20:23:18;38.80;;;14.77;;
14167;SDS011;7163;50.626;12.922;2024-01-16T20:28:18;22.45;;;11.50;;
14167;SDS011;7163;50.626;12.922;2024-01-16T20:33:22;20.70;;;11.33;;
14167;SDS011;7163;50.626;12.922;2024-01-16T20:38:25;31.23;;;15.90;;
14167;SDS011;7163;50.626;12.922;2024-01-16T20:43:26;18.93;;;10.60;;
14167;SDS011;7163;50.626;12.922;2024-01-16T20:48:27;17.37;;;9.97;;
14167;SDS011;7163;50.626;12.922;2024-01-16T20:53:28;20.33;;;11.83;;
14167;SDS011;7163;50.626;12.922;2024-01-16T20:58:29;14.60;;;9.10;;
14167;SDS011;7163;50.626;12.922;2024-01-16T21:03:29;12.25;;;7.85;;
14167;SDS011;7163;50.626;12.922;2024-01-16T21:08:30;13.13;;;7.50;;
14167;SDS011;7163;50.626;12.922;2024-01-16T21:13:31;13.57;;;6.67;;
14167;SDS011;7163;50.626;12.922;2024-01-16T21:18:34;12.82;;;7.30;;
14167;SDS011;7163;50.626;12.922;2024-01-16T21:23:38;21.47;;;11.17;;
14167;SDS011;7163;50.626;12.922;2024-01-16T21:28:41;18.87;;;8.70;;
14167;SDS011;7163;50.626;12.922;2024-01-16T21:33:44;23.07;;;9.53;;
14167;SDS011;7163;50.626;12.922;2024-01-16T21:38:44;17.47;;;9.23;;
14167;SDS011;7163;50.626;12.922;2024-01-16T21:43:48;21.05;;;9.52;;
14167;SDS011;7163;50.626;12.922;2024-01-16T21:48:48;26.50;;;11.03;;
14167;SDS011;7163;50.626;12.922;2024-01-16T21:53:48;28.15;;;11.10;;
14167;SDS011;7163;50.626;12.922;2024-01-16T21:58:51;24.75;;;10.18;;
14167;SDS011;7163;50.626;12.922;2024-01-16T22:03:56;18.57;;;9.83;;
14167;SDS011;7163;50.626;12.922;2024-01-16T22:08:56;16.97;;;8.80;;
14167;SDS011;7163;50.626;12.922;2024-01-16T22:13:57;15.10;;;8.10;;
14167;SDS011;7163;50.626;12.922;2024-01-16T22:18:58;19.03;;;8.40;;
14167;SDS011;7163;50.626;12.922;2024-01-16T22:23:58;13.83;;;7.30;;
14167;SDS011;7163;50.626;12.922;2024-01-16T22:28:59;18.07;;;8.90;;
14167;SDS011;7163;50.626;12.922;2024-01-16T22:34:02;21.27;;;10.70;;
14167;SDS011;7163;50.626;12.922;2024-01-16T22:39:02;29.30;;;11.20;;
14167;SDS011;7163;50.626;12.922;2024-01-16T22:44:03;18.27;;;8.57;;
14167;SDS011;7163;50.626;12.922;2024-01-16T22:49:04;20.07;;;9.20;;
14167;SDS011;7163;50.626;12.922;2024-01-16T22:54:06;18.23;;;10.47;;
14167;SDS011;7163;50.626;12.922;2024-01-16T22:59:08;17.77;;;9.57;;
14167;SDS011;7163;50.626;12.922;2024-01-16T23:04:09;20.60;;;8.93;;
14167;SDS011;7163;50.626;12.922;2024-01-16T23:09:09;21.38;;;8.77;;
14167;SDS011;7163;50.626;12.922;2024-01-16T23:14:16;15.00;;;8.70;;
14167;SDS011;7163;50.626;12.922;2024-01-16T23:19:16;16.20;;;8.07;;
14167;SDS011;7163;50.626;12.922;2024-01-16T23:24:17;12.17;;;7.10;;
14167;SDS011;7163;50.626;12.922;2024-01-16T23:29:19;12.67;;;7.97;;
14167;SDS011;7163;50.626;12.922;2024-01-16T23:34:19;7.47;;;6.13;;
14167;SDS011;7163;50.626;12.922;2024-01-16T23:39:20;7.23;;;6.10;;
14167;SDS011;7163;50.626;12.922;2024-01-16T23:44:22;14.13;;;7.43;;
14167;SDS011;7163;50.626;12.922;2024-01-16T23:49:23;9.40;;;6.60;;
14167;SDS011;7163;50.626;12.922;2024-01-16T23:54:23;13.33;;;6.70;;
14167;SDS011;7163;50.626;12.922;2024-01-16T23:59:24;15.27;;;7.95;;
